Time;durP1;ratioP1;P1;durP2;ratioP2;P2;SDS_P1;SDS_P2;PMS_P1;PMS_P2;Temp;Humidity;BMP_temperature;BMP_pressure;BME280_temperature;BME280_humidity;BME280_pressure;Samples;Min_cycle;Max_cycle;Signal;HPM_P1;HPM_P2
2023/03/22 00:00:15;;;;;;;5.13;2.80;;;;;;;18.26;40.42;100166.53;5075257;28;20098;-66
2023/03/22 00:02:44;;;;;;;4.82;2.80;;;;;;;18.25;40.59;100167.53;5074860;28;20497;-67
2023/03/22 00:05:12;;;;;;;5.00;2.92;;;;;;;18.23;40.41;100164.94;5074706;28;20528;-66
2023/03/22 00:07:42;;;;;;;4.72;2.85;;;;;;;18.21;40.38;100171.50;5074938;28;20131;-66
2023/03/22 00:10:11;;;;;;;5.20;3.13;;;;;;;18.21;40.33;100164.25;5074918;28;20051;-66
2023/03/22 00:12:39;;;;;;;4.30;2.80;;;;;;;18.20;40.28;100159.84;5074691;28;20078;-66
2023/03/22 00:15:09;;;;;;;4.35;2.80;;;;;;;18.18;40.62;100153.75;5074680;28;20535;-66
2023/03/22 00:17:40;;;;;;;4.57;2.80;;;;;;;18.16;40.56;100152.19;5074487;28;20086;-66
2023/03/22 00:20:10;;;;;;;4.70;2.88;;;;;;;18.15;40.45;100155.88;5074522;28;20049;-66
2023/03/22 00:22:38;;;;;;;4.68;2.80;;;;;;;18.14;40.53;100154.16;5074638;28;20464;-66
2023/03/22 00:25:07;;;;;;;4.85;2.90;;;;;;;18.13;40.62;100150.59;5074295;28;20098;-66
2023/03/22 00:27:35;;;;;;;3.72;2.60;;;;;;;18.11;40.44;100155.28;5074467;28;20098;-66
2023/03/22 00:30:04;;;;;;;4.43;2.95;;;;;;;18.03;40.73;100142.50;5074321;28;20048;-66
2023/03/22 00:32:34;;;;;;;4.78;2.90;;;;;;;18.10;40.65;100160.84;5074396;28;20040;-66
2023/03/22 00:35:05;;;;;;;6.05;3.20;;;;;;;18.08;40.59;100144.78;5074496;28;20055;-67
2023/03/22 00:37:37;;;;;;;4.97;2.90;;;;;;;18.06;40.72;100152.19;5074430;28;20052;-65
2023/03/22 00:40:07;;;;;;;4.80;2.72;;;;;;;18.06;40.57;100146.78;5073326;28;20049;-66
2023/03/22 00:42:36;;;;;;;4.43;2.83;;;;;;;18.03;40.23;100150.59;5073639;28;20048;-65
2023/03/22 00:45:05;;;;;;;4.82;2.97;;;;;;;18.03;40.55;100147.06;5074054;28;20131;-66
2023/03/22 00:47:35;;;;;;;5.13;3.00;;;;;;;18.03;40.66;100152.44;5074132;28;20052;-66
2023/03/22 00:50:06;;;;;;;4.65;2.97;;;;;;;18.01;40.42;100155.31;5074012;28;20045;-66
2023/03/22 00:52:34;;;;;;;4.75;2.90;;;;;;;17.98;40.69;100152.03;5073954;28;20128;-66
2023/03/22 00:55:03;;;;;;;4.88;3.08;;;;;;;17.97;40.46;100161.13;5074075;28;20244;-66
2023/03/22 00:57:31;;;;;;;4.82;3.10;;;;;;;17.97;40.64;100155.75;5073950;28;20055;-66
2023/03/22 01:00:06;;;;;;;4.68;2.90;;;;;;;17.95;40.59;100158.59;5074067;28;20047;-66
2023/03/22 01:02:34;;;;;;;5.10;2.90;;;;;;;17.94;40.58;100156.84;5073830;28;20044;-66
2023/03/22 01:05:05;;;;;;;4.20;2.85;;;;;;;17.93;40.54;100157.00;5073776;28;20503;-65
2023/03/22 01:07:37;;;;;;;5.30;2.90;;;;;;;17.93;40.45;100157.84;5073607;28;20123;-66
2023/03/22 01:10:06;;;;;;;4.15;2.92;;;;;;;17.92;40.54;100147.19;5073683;28;20044;-65
2023/03/22 01:12:34;;;;;;;4.35;2.75;;;;;;;17.91;40.49;100148.19;5073613;28;20052;-65
2023/03/22 01:15:03;;;;;;;4.15;2.63;;;;;;;17.90;40.49;100143.81;5073772;28;20045;-65
2023/03/22 01:17:31;;;;;;;4.30;2.90;;;;;;;17.88;40.50;100141.25;5073548;28;20420;-66
2023/03/22 01:19:59;;;;;;;4.53;2.80;;;;;;;17.86;40.47;100135.16;5073473;28;20401;-65
2023/03/22 01:22:29;;;;;;;4.40;2.85;;;;;;;17.83;40.46;100137.25;5073399;28;20056;-65
2023/03/22 01:24:57;;;;;;;4.78;2.90;;;;;;;17.83;40.68;100124.63;5073470;28;20123;-66
2023/03/22 01:27:25;;;;;;;4.68;2.90;;;;;;;17.82;40.61;100122.06;5073173;28;20040;-64
2023/03/22 01:29:53;;;;;;;4.55;2.72;;;;;;;17.80;40.60;100119.50;5073270;28;20408;-65
2023/03/22 01:32:22;;;;;;;4.55;2.78;;;;;;;17.81;40.62;100123.06;5073384;28;20384;-67
2023/03/22 01:34:51;;;;;;;4.07;2.90;;;;;;;17.79;40.62;100122.34;5073050;28;20052;-66
2023/03/22 01:37:20;;;;;;;5.03;3.05;;;;;;;17.76;40.48;100118.09;5073088;28;20052;-66
2023/03/22 01:39:50;;;;;;;4.97;2.88;;;;;;;17.77;40.38;100121.66;5073031;28;20059;-66
2023/03/22 01:42:19;;;;;;;4.38;2.92;;;;;;;17.74;40.54;100120.06;5073039;28;20135;-65
2023/03/22 01:45:32;;;;;;;4.40;2.72;;;;;;;17.73;40.50;100124.63;5072990;28;20045;-66
2023/03/22 01:48:05;;;;;;;5.22;3.08;;;;;;;17.71;40.55;100115.81;5073064;28;20045;-66
2023/03/22 01:50:33;;;;;;;4.85;2.97;;;;;;;17.69;40.60;100125.91;5072923;28;20071;-66
2023/03/22 01:53:04;;;;;;;3.60;2.58;;;;;;;17.70;40.46;100129.44;5072519;28;20041;-66
2023/03/22 01:55:34;;;;;;;4.45;3.10;;;;;;;17.69;40.45;100128.59;5072897;28;20523;-66
2023/03/22 01:58:03;;;;;;;4.38;2.72;;;;;;;17.67;40.59;100130.56;5072840;28;20076;-65
2023/03/22 02:00:32;;;;;;;4.85;3.20;;;;;;;17.66;40.56;100118.06;5072784;28;20033;-65
2023/03/22 02:03:01;;;;;;;4.90;3.05;;;;;;;17.65;40.55;100137.91;5072766;28;20051;-66
2023/03/22 02:05:30;;;;;;;4.45;2.88;;;;;;;17.64;40.49;100130.81;5072541;28;20048;-66
2023/03/22 02:07:59;;;;;;;4.57;3.00;;;;;;;17.63;40.58;100139.06;5072408;28;20044;-67
2023/03/22 02:10:28;;;;;;;5.40;2.92;;;;;;;17.62;40.61;100140.06;5072388;28;20052;-65
2023/03/22 02:13:29;;;;;;;4.07;2.60;;;;;;;17.60;40.48;100145.59;5072390;28;20127;-65
2023/03/22 02:16:11;;;;;;;4.10;2.63;;;;;;;17.57;40.62;100142.34;5072297;28;20052;-66
2023/03/22 02:18:59;;;;;;;3.85;2.50;;;;;;;17.57;40.49;100140.50;5072204;28;20124;-66
2023/03/22 02:21:42;;;;;;;4.13;2.60;;;;;;;17.56;40.54;100138.75;5072303;28;20143;-66
2023/03/22 02:24:31;;;;;;;3.92;2.58;;;;;;;17.52;40.74;100142.72;5072252;28;20055;-66
2023/03/22 02:27:27;;;;;;;4.22;2.80;;;;;;;17.51;40.55;100146.44;5072107;28;20444;-66
2023/03/22 02:30:09;;;;;;;4.50;2.78;;;;;;;17.50;40.51;100144.72;5062337;28;20064;-66
2023/03/22 02:33:01;;;;;;;4.93;2.95;;;;;;;17.49;40.63;100144.88;5071161;28;20059;-66
2023/03/22 02:35:41;;;;;;;4.65;2.63;;;;;;;17.48;40.66;100137.78;5072021;28;20044;-66
2023/03/22 02:38:58;;;;;;;4.35;2.72;;;;;;;17.47;40.58;100150.41;5072016;28;20040;-66
2023/03/22 02:41:40;;;;;;;3.95;2.80;;;;;;;17.46;40.65;100145.97;5071995;28;20045;-66
2023/03/22 02:44:14;;;;;;;4.78;3.03;;;;;;;17.43;40.80;100152.50;5072208;28;20052;-66
2023/03/22 02:46:46;;;;;;;5.25;3.17;;;;;;;17.43;40.58;100157.91;5071927;28;20052;-66
2023/03/22 02:49:21;;;;;;;4.65;3.00;;;;;;;17.37;40.73;100149.50;5071926;28;20098;-66
2023/03/22 02:51:59;;;;;;;5.15;3.22;;;;;;;17.40;40.75;100151.94;5071809;28;20489;-66
2023/03/22 02:54:38;;;;;;;5.15;3.28;;;;;;;17.38;40.72;100146.69;5071891;28;20041;-66
2023/03/22 02:57:13;;;;;;;5.47;3.58;;;;;;;17.36;40.65;100148.66;5072308;28;20040;-66
2023/03/22 02:59:43;;;;;;;4.70;3.08;;;;;;;17.33;40.72;100151.63;5071886;28;20173;-66
2023/03/22 03:02:17;;;;;;;5.10;3.17;;;;;;;17.35;40.52;100160.44;5071939;28;20044;-66
2023/03/22 03:04:48;;;;;;;4.80;3.33;;;;;;;17.34;40.81;100160.56;5070858;28;20049;-66
2023/03/22 03:07:20;;;;;;;4.45;2.92;;;;;;;17.33;40.73;100157.03;5071700;28;20041;-67
2023/03/22 03:09:54;;;;;;;4.40;3.03;;;;;;;17.32;40.66;100157.16;5071716;28;20046;-66
2023/03/22 03:12:25;;;;;;;5.78;3.42;;;;;;;17.31;40.70;100155.47;5071692;28;20041;-66
2023/03/22 03:14:53;;;;;;;5.63;3.40;;;;;;;17.29;40.67;100152.06;5071494;28;20056;-66
2023/03/22 03:17:38;;;;;;;4.70;3.10;;;;;;;17.27;40.64;100159.41;5071208;28;20119;-66
2023/03/22 03:20:23;;;;;;;5.38;3.28;;;;;;;17.27;40.76;100154.00;5071536;28;20048;-66
2023/03/22 03:23:12;;;;;;;5.22;3.33;;;;;;;17.25;40.79;100143.38;5056495;28;20102;-65
2023/03/22 03:25:48;;;;;;;5.10;3.20;;;;;;;17.25;40.64;100154.16;5059933;28;20048;-65
2023/03/22 03:28:29;;;;;;;5.65;3.40;;;;;;;17.23;40.85;100152.59;5071495;28;20040;-67
2023/03/22 03:31:02;;;;;;;5.07;3.45;;;;;;;17.20;40.73;100151.03;5071436;28;20059;-65
2023/03/22 03:33:35;;;;;;;;;;;;;;;17.21;40.86;100154.59;5071906;28;20090;-65
2023/03/22 03:36:08;;;;;;;5.15;3.20;;;;;;;17.20;40.68;100159.13;5071484;28;19920;-65
2023/03/22 03:38:38;;;;;;;;;;;;;;;17.18;40.99;100150.31;5053105;28;20045;-66
2023/03/22 03:41:11;;;;;;;4.93;3.40;;;;;;;17.15;40.83;100156.81;5051200;28;19920;-66
2023/03/22 03:43:42;;;;;;;5.40;3.45;;;;;;;17.15;40.86;100162.22;5051197;28;20490;-65
2023/03/22 03:46:10;;;;;;;5.78;3.70;;;;;;;17.15;40.83;100155.97;5051182;28;20052;-66
2023/03/22 03:48:43;;;;;;;5.47;3.60;;;;;;;17.14;40.85;100159.66;5051160;28;20094;-66
2023/03/22 03:51:11;;;;;;;4.97;3.13;;;;;;;17.12;40.83;100156.25;5051266;28;20048;-66
2023/03/22 03:53:40;;;;;;;5.15;3.28;;;;;;;17.12;40.93;100164.34;5051368;28;20292;-66
2023/03/22 03:56:10;;;;;;;5.28;3.58;;;;;;;17.10;40.84;100158.25;5051030;28;20490;-66
2023/03/22 03:58:39;;;;;;;5.00;3.60;;;;;;;17.11;40.89;100165.31;5051174;28;20051;-65
2023/03/22 04:01:07;;;;;;;5.68;3.45;;;;;;;17.06;41.02;100152.25;5051021;28;20045;-66
2023/03/22 04:03:36;;;;;;;5.10;3.40;;;;;;;17.10;40.84;100152.84;5051205;28;20084;-66
2023/03/22 04:06:05;;;;;;;5.10;3.38;;;;;;;17.04;41.19;100148.84;5049498;28;20485;-66
2023/03/22 04:08:33;;;;;;;6.40;4.20;;;;;;;17.07;40.86;100161.19;5071026;28;20051;-66
2023/03/22 04:11:01;;;;;;;5.55;3.40;;;;;;;17.06;40.77;100167.56;5071070;28;20477;-66
2023/03/22 04:13:31;;;;;;;8.20;4.00;;;;;;;17.05;40.88;100164.03;5070997;28;20135;-66
2023/03/22 04:16:01;;;;;;;5.22;3.35;;;;;;;17.04;40.84;100153.38;5073262;28;20056;-66
2023/03/22 04:18:29;;;;;;;5.38;3.63;;;;;;;17.03;40.98;100146.28;5074503;28;20044;-66
2023/03/22 04:20:57;;;;;;;5.30;3.75;;;;;;;17.03;40.91;100151.69;5074652;28;20075;-65
2023/03/22 04:23:25;;;;;;;5.10;3.40;;;;;;;17.02;40.96;100155.38;5074547;28;20409;-66
2023/03/22 04:25:53;;;;;;;5.82;3.85;;;;;;;17.00;40.87;100155.50;5074386;28;20050;-65
2023/03/22 04:28:22;;;;;;;6.45;3.63;;;;;;;16.99;40.92;100161.88;5074309;28;20130;-65
2023/03/22 04:30:53;;;;;;;5.90;3.83;;;;;;;16.99;40.95;100172.66;5074603;28;20048;-65
2023/03/22 04:33:21;;;;;;;6.22;3.83;;;;;;;16.98;41.10;100172.78;5074416;28;20040;-65
2023/03/22 04:35:55;;;;;;;5.50;3.72;;;;;;;16.95;41.11;100171.22;5074206;28;20045;-66
2023/03/22 04:38:24;;;;;;;5.05;3.70;;;;;;;16.95;40.94;100176.59;5074266;28;20048;-65
2023/03/22 04:40:54;;;;;;;5.70;3.75;;;;;;;16.96;40.88;100177.44;5074005;28;20060;-64
2023/03/22 04:43:22;;;;;;;6.57;3.88;;;;;;;16.95;40.81;100181.13;5073135;28;20040;-66
2023/03/22 04:45:53;;;;;;;6.03;3.72;;;;;;;16.93;41.07;100177.72;5061363;28;20049;-65
2023/03/22 04:48:23;;;;;;;4.90;3.40;;;;;;;16.92;40.87;100173.34;5072259;28;20051;-65
2023/03/22 04:50:52;;;;;;;6.15;3.80;;;;;;;16.89;40.97;100166.38;5073995;28;20139;-65
2023/03/22 04:53:26;;;;;;;5.70;3.80;;;;;;;16.88;41.02;100170.03;5073801;28;20045;-65
2023/03/22 04:55:55;;;;;;;4.95;3.55;;;;;;;16.90;40.86;100168.09;5074378;28;20075;-64
2023/03/22 04:58:24;;;;;;;6.32;3.90;;;;;;;16.89;41.01;100177.16;5073931;28;20059;-65
2023/03/22 05:00:53;;;;;;;6.22;3.88;;;;;;;16.87;41.06;100179.09;5073827;28;20045;-65
2023/03/22 05:03:22;;;;;;;6.25;4.07;;;;;;;16.85;41.11;100176.56;5073740;28;20098;-65
2023/03/22 05:05:53;;;;;;;6.40;3.70;;;;;;;16.85;40.92;100184.63;5073615;28;20075;-65
2023/03/22 05:08:23;;;;;;;5.57;3.78;;;;;;;16.84;41.05;100174.00;5073755;28;20048;-66
2023/03/22 05:10:52;;;;;;;5.28;3.50;;;;;;;16.84;40.89;100179.38;5073731;28;20044;-66
2023/03/22 05:13:21;;;;;;;5.30;3.67;;;;;;;16.82;41.08;100182.22;5074001;28;20083;-66
2023/03/22 05:15:50;;;;;;;5.78;3.83;;;;;;;16.83;40.97;100204.63;5074716;28;20045;-66
2023/03/22 05:18:23;;;;;;;6.10;4.28;;;;;;;16.81;41.03;100207.44;5077886;28;20102;-65
2023/03/22 05:20:53;;;;;;;6.28;4.28;;;;;;;16.81;40.97;100202.06;5076621;28;20067;-66
2023/03/22 05:23:22;;;;;;;5.60;3.92;;;;;;;16.81;41.06;100198.50;5077464;28;20056;-66
2023/03/22 05:25:52;;;;;;;6.07;3.92;;;;;;;16.81;40.97;100201.22;5075219;28;20051;-65
2023/03/22 05:28:21;;;;;;;6.38;3.90;;;;;;;16.79;41.13;100204.03;5073558;28;20051;-66
2023/03/22 05:30:50;;;;;;;6.03;3.97;;;;;;;16.78;40.85;100196.91;5073532;28;20041;-65
2023/03/22 05:33:21;;;;;;;7.63;4.20;;;;;;;16.77;41.01;100199.75;5073075;28;20045;-65
2023/03/22 05:35:49;;;;;;;6.45;4.00;;;;;;;16.78;41.21;100210.38;5073080;28;20047;-65
2023/03/22 05:38:18;;;;;;;5.07;3.65;;;;;;;16.78;41.05;100217.63;5073197;28;20045;-65
2023/03/22 05:40:46;;;;;;;5.53;3.67;;;;;;;16.77;41.09;100221.31;5072959;28;20067;-65
2023/03/22 05:43:15;;;;;;;6.75;4.10;;;;;;;16.74;41.21;100221.56;5073014;28;20131;-66
2023/03/22 05:45:44;;;;;;;5.47;3.65;;;;;;;16.77;40.96;100215.91;5072636;28;20045;-66
2023/03/22 05:48:12;;;;;;;6.30;3.88;;;;;;;16.75;40.96;100205.28;5072658;28;20044;-65
2023/03/22 05:50:42;;;;;;;6.40;4.03;;;;;;;16.75;41.01;100209.81;5072749;28;20045;-65
2023/03/22 05:53:11;;;;;;;6.90;4.20;;;;;;;16.74;41.15;100217.03;5072644;28;20049;-65
2023/03/22 05:55:39;;;;;;;5.75;3.90;;;;;;;16.74;41.10;100227.81;5072559;28;20044;-66
2023/03/22 05:58:07;;;;;;;5.85;3.97;;;;;;;16.73;41.06;100227.94;5072559;28;20044;-66
2023/03/22 06:00:36;;;;;;;5.90;3.80;;;;;;;16.74;41.04;100224.28;5072565;28;20135;-66
2023/03/22 06:03:04;;;;;;;5.82;4.25;;;;;;;16.72;41.10;100229.78;5072404;28;20048;-66
2023/03/22 06:05:35;;;;;;;5.70;3.70;;;;;;;16.72;41.11;100235.19;5072537;28;20045;-65
2023/03/22 06:08:05;;;;;;;6.15;4.35;;;;;;;16.72;40.95;100235.19;5072323;28;20052;-66
2023/03/22 06:10:33;;;;;;;6.32;4.18;;;;;;;16.72;41.17;100245.94;5072372;28;20044;-65
2023/03/22 06:13:01;;;;;;;7.20;4.20;;;;;;;16.71;41.10;100238.84;5072265;28;20093;-64
2023/03/22 06:15:29;;;;;;;6.05;4.13;;;;;;;16.69;41.02;100239.94;5072257;28;20059;-67
2023/03/22 06:17:57;;;;;;;6.10;4.00;;;;;;;16.71;41.20;100243.41;5072045;28;20102;-66
2023/03/22 06:20:26;;;;;;;5.50;3.80;;;;;;;16.69;41.10;100234.56;5064924;28;20470;-66
2023/03/22 06:22:54;;;;;;;5.95;4.28;;;;;;;16.69;41.21;100235.41;5051619;28;20045;-66
2023/03/22 06:25:23;;;;;;;5.35;3.63;;;;;;;16.70;41.16;100237.16;5051506;28;20045;-67
2023/03/22 06:27:51;;;;;;;6.65;4.65;;;;;;;16.70;41.21;100236.31;5051914;28;20140;-66
2023/03/22 06:30:20;;;;;;;6.40;4.40;;;;;;;16.69;41.25;100240.81;5051780;28;20159;-66
2023/03/22 06:32:48;;;;;;;6.53;4.40;;;;;;;16.70;41.19;100255.16;5051785;28;20077;-66
2023/03/22 06:35:16;;;;;;;6.75;4.43;;;;;;;16.69;41.22;100254.28;5051914;28;20107;-66
2023/03/22 06:37:45;;;;;;;6.47;4.28;;;;;;;16.70;41.25;100260.53;5051781;28;20092;-67
2023/03/22 06:40:13;;;;;;;6.35;4.30;;;;;;;16.69;41.36;100256.13;5051645;28;20064;-67
2023/03/22 06:42:43;;;;;;;8.35;4.65;;;;;;;16.70;41.25;100252.47;5051624;28;20049;-67
2023/03/22 06:45:13;;;;;;;6.80;4.20;;;;;;;16.70;41.14;100252.47;5051525;28;20041;-67
2023/03/22 06:47:41;;;;;;;7.50;4.82;;;;;;;16.70;40.95;100256.00;5051444;28;20098;-67
2023/03/22 06:50:10;;;;;;;7.53;4.30;;;;;;;16.67;41.23;100249.97;5051289;28;20041;-67
2023/03/22 06:52:38;;;;;;;6.47;4.57;;;;;;;16.70;41.18;100255.16;5051514;28;20045;-67
2023/03/22 06:55:07;;;;;;;7.13;4.70;;;;;;;16.70;41.27;100264.09;5051531;28;20048;-68
2023/03/22 06:57:36;;;;;;;6.75;4.95;;;;;;;16.71;41.19;100259.56;5051334;28;20078;-66
2023/03/22 07:00:07;;;;;;;6.57;4.40;;;;;;;16.67;41.31;100250.84;5051435;28;20053;-66
2023/03/22 07:02:35;;;;;;;6.70;4.70;;;;;;;16.70;41.18;100257.84;5051546;28;20144;-67
2023/03/22 07:05:04;;;;;;;7.65;4.63;;;;;;;16.70;41.47;100264.09;5051433;28;20052;-66
2023/03/22 07:07:32;;;;;;;6.82;4.60;;;;;;;16.71;41.31;100260.41;5051463;28;20044;-67
2023/03/22 07:10:01;;;;;;;6.40;4.15;;;;;;;16.71;41.45;100256.88;5051262;28;20106;-66
2023/03/22 07:12:29;;;;;;;6.60;4.20;;;;;;;16.68;41.48;100255.25;5051337;28;20482;-66
2023/03/22 07:14:58;;;;;;;6.78;4.22;;;;;;;16.71;41.33;100260.41;5051752;28;20057;-67
2023/03/22 07:17:27;;;;;;;6.22;4.35;;;;;;;16.74;41.32;100264.66;5051369;28;20091;-68
2023/03/22 07:19:55;;;;;;;7.35;4.63;;;;;;;16.73;41.34;100271.03;5051238;28;20043;-66
2023/03/22 07:22:24;;;;;;;7.20;4.50;;;;;;;16.73;41.38;100273.75;5051447;28;20049;-66
2023/03/22 07:24:53;;;;;;;5.60;3.90;;;;;;;16.74;41.41;100270.91;5051415;28;20072;-67
2023/03/22 07:27:26;;;;;;;5.68;3.92;;;;;;;16.75;41.43;100275.31;5051459;28;20045;-67
2023/03/22 07:29:54;;;;;;;6.30;4.18;;;;;;;16.76;41.44;100284.25;5051120;28;20047;-67
2023/03/22 07:32:22;;;;;;;6.00;4.05;;;;;;;16.74;41.31;100281.69;5051317;28;20429;-67
2023/03/22 07:34:52;;;;;;;6.20;4.35;;;;;;;16.78;41.29;100266.09;5051569;28;20501;-67
2023/03/22 07:37:20;;;;;;;6.50;4.05;;;;;;;16.75;41.50;100256.44;5051243;28;20120;-65
2023/03/22 07:39:49;;;;;;;6.72;3.70;;;;;;;16.77;41.61;100259.00;5050918;28;20080;-65
2023/03/22 07:42:17;;;;;;;5.93;3.90;;;;;;;16.77;41.68;100270.63;5050918;28;20052;-66
2023/03/22 07:44:48;;;;;;;6.85;4.03;;;;;;;16.81;41.59;100282.03;5050883;28;20049;-66
2023/03/22 07:47:16;;;;;;;5.45;3.97;;;;;;;16.80;41.72;100270.41;5051071;28;20417;-69
2023/03/22 07:50:02;;;;;;;5.88;4.03;;;;;;;16.81;41.62;100269.41;5051971;28;20056;-68
2023/03/22 07:52:31;;;;;;;6.60;4.10;;;;;;;16.82;41.71;100267.56;5054976;28;20049;-67
2023/03/22 07:54:59;;;;;;;6.63;4.10;;;;;;;16.83;41.53;100269.28;5054705;28;20073;-68
2023/03/22 07:57:27;;;;;;;6.80;4.18;;;;;;;16.84;41.68;100265.59;5054721;28;20047;-69
2023/03/22 07:59:56;;;;;;;6.28;4.03;;;;;;;16.85;41.69;100272.69;5054937;28;20052;-69
2023/03/22 08:02:24;;;;;;;6.10;3.90;;;;;;;16.86;41.73;100267.16;5054860;28;20099;-69
2023/03/22 08:04:53;;;;;;;5.72;3.90;;;;;;;16.88;41.68;100261.63;5054540;28;20064;-69
2023/03/22 08:07:25;;;;;;;6.18;4.30;;;;;;;16.89;41.83;100249.91;5054761;28;20401;-68
2023/03/22 08:09:53;;;;;;;5.97;3.97;;;;;;;16.91;41.84;100250.59;5054254;28;20092;-69
2023/03/22 08:12:21;;;;;;;6.28;4.10;;;;;;;16.92;41.70;100246.06;5054463;28;20125;-68
2023/03/22 08:14:51;;;;;;;5.82;3.83;;;;;;;16.93;41.75;100255.84;5054624;28;20128;-69
2023/03/22 08:17:19;;;;;;;6.30;3.80;;;;;;;16.93;41.71;100248.63;5054349;28;20059;-69
2023/03/22 08:19:48;;;;;;;5.93;3.97;;;;;;;16.95;41.75;100252.03;5054332;28;20056;-69
2023/03/22 08:22:16;;;;;;;5.63;3.75;;;;;;;16.96;41.62;100256.44;5054443;28;20045;-70
2023/03/22 08:24:46;;;;;;;5.88;3.90;;;;;;;16.97;41.70;100250.06;5054113;28;20106;-68
2023/03/22 08:27:14;;;;;;;5.90;3.45;;;;;;;16.97;41.83;100250.06;5053983;28;20052;-68
2023/03/22 08:29:43;;;;;;;6.32;3.65;;;;;;;16.99;41.77;100253.50;5053883;28;20116;-68
2023/03/22 08:32:11;;;;;;;5.78;3.90;;;;;;;16.98;41.75;100254.44;5053831;28;20490;-68
2023/03/22 08:34:40;;;;;;;5.90;3.67;;;;;;;17.00;41.66;100263.28;5053913;28;20071;-69
2023/03/22 08:37:09;;;;;;;6.07;3.95;;;;;;;17.02;41.89;100258.59;5053783;28;20045;-69
2023/03/22 08:39:39;;;;;;;6.00;4.20;;;;;;;17.04;41.82;100266.56;5053795;28;20454;-69
2023/03/22 08:42:09;;;;;;;5.55;3.60;;;;;;;17.03;41.86;100263.00;5053775;28;20404;-66
2023/03/22 08:44:37;;;;;;;6.13;3.80;;;;;;;17.05;41.86;100266.41;5053845;28;20055;-68
2023/03/22 08:47:06;;;;;;;6.78;3.90;;;;;;;17.08;41.90;100273.38;5053652;28;20045;-68
2023/03/22 08:49:34;;;;;;;5.60;3.80;;;;;;;17.09;41.94;100259.78;5053328;28;20083;-68
2023/03/22 08:52:03;;;;;;;5.22;3.65;;;;;;;17.09;41.96;100265.19;5053777;28;20068;-69
2023/03/22 08:54:32;;;;;;;5.60;3.95;;;;;;;17.11;42.13;100263.19;5053631;28;20072;-68
2023/03/22 08:57:02;;;;;;;5.60;3.53;;;;;;;17.10;42.02;100260.66;5053454;28;20040;-69
2023/03/22 08:59:31;;;;;;;5.68;3.83;;;;;;;17.12;41.91;100264.91;5053332;28;20069;-68
2023/03/22 09:02:00;;;;;;;5.25;4.00;;;;;;;17.11;41.89;100262.34;5052301;28;20045;-68
2023/03/22 09:04:28;;;;;;;5.80;3.50;;;;;;;17.14;42.03;100262.06;5053999;28;20120;-69
2023/03/22 09:06:56;;;;;;;5.25;3.40;;;;;;;17.16;42.00;100270.88;5053669;28;20045;-68
2023/03/22 09:09:25;;;;;;;5.43;4.00;;;;;;;17.16;42.03;100271.72;5053809;28;20048;-68
2023/03/22 09:11:53;;;;;;;7.15;4.60;;;;;;;17.19;42.14;100278.72;5053351;28;20056;-69
2023/03/22 09:14:21;;;;;;;6.10;3.97;;;;;;;17.19;42.13;100267.94;5053212;28;20037;-69
2023/03/22 09:16:50;;;;;;;5.35;3.53;;;;;;;17.21;42.23;100273.19;5053374;28;20081;-69
2023/03/22 09:19:19;;;;;;;5.47;4.00;;;;;;;17.22;42.05;100275.75;5053511;28;20045;-68
2023/03/22 09:21:48;;;;;;;5.50;3.70;;;;;;;17.25;42.15;100263.81;5053448;28;20061;-68
2023/03/22 09:24:17;;;;;;;4.80;3.60;;;;;;;17.27;42.10;100265.38;5053078;28;20099;-68
2023/03/22 09:26:45;;;;;;;5.55;3.72;;;;;;;17.27;42.14;100253.75;5053261;28;20056;-69
2023/03/22 09:29:14;;;;;;;6.28;3.75;;;;;;;17.30;42.05;100261.59;5053133;28;20098;-69
2023/03/22 09:31:43;;;;;;;5.55;4.05;;;;;;;17.32;42.02;100262.31;5052840;28;20052;-68
2023/03/22 09:34:12;;;;;;;8.50;3.70;;;;;;;17.31;42.07;100258.75;5052914;28;20508;-69
2023/03/22 09:36:41;;;;;;;6.07;4.00;;;;;;;17.35;42.13;100256.63;5053044;28;20056;-68
2023/03/22 09:39:09;;;;;;;6.03;4.00;;;;;;;17.33;41.97;100250.53;5052923;28;20044;-69
2023/03/22 09:41:44;;;;;;;5.88;3.90;;;;;;;17.36;42.21;100250.25;5052855;28;20091;-68
2023/03/22 09:44:15;;;;;;;6.38;4.07;;;;;;;17.39;42.04;100250.00;5052953;28;20041;-70
2023/03/22 09:46:47;;;;;;;5.72;3.92;;;;;;;17.41;42.25;100248.00;5052876;28;20045;-70
2023/03/22 09:49:21;;;;;;;6.60;4.03;;;;;;;17.41;42.03;100239.91;5052578;28;20095;-69
2023/03/22 09:51:51;;;;;;;6.20;4.13;;;;;;;17.41;42.16;100235.38;5052100;28;20041;-70
2023/03/22 09:54:26;;;;;;;6.28;4.30;;;;;;;17.38;42.10;100232.97;5052018;28;20482;-69
2023/03/22 09:57:00;;;;;;;6.40;3.90;;;;;;;17.45;42.17;100233.25;5052306;28;20045;-69
2023/03/22 09:59:39;;;;;;;6.53;3.90;;;;;;;17.42;42.22;100229.00;5052075;28;20045;-69
2023/03/22 10:02:27;;;;;;;6.10;3.97;;;;;;;17.48;42.17;100238.41;5052840;28;20087;-70
2023/03/22 10:05:03;;;;;;;5.28;3.70;;;;;;;17.49;42.15;100239.25;5052338;28;20041;-68
2023/03/22 10:07:40;;;;;;;5.90;4.00;;;;;;;17.50;42.18;100235.56;5052537;28;20056;-69
2023/03/22 10:10:16;;;;;;;5.57;3.70;;;;;;;17.51;42.12;100240.81;5052569;28;20098;-68
2023/03/22 10:12:53;;;;;;;5.65;3.92;;;;;;;17.54;42.10;100239.66;5052044;28;20120;-69
2023/03/22 10:15:28;;;;;;;5.65;3.92;;;;;;;17.53;42.21;100240.66;5052068;28;20041;-69
2023/03/22 10:17:59;;;;;;;6.18;3.88;;;;;;;17.53;42.16;100241.50;5052270;28;20099;-69
2023/03/22 10:20:39;;;;;;;5.97;3.95;;;;;;;17.56;42.13;100240.38;5052309;28;20051;-68
2023/03/22 10:23:14;;;;;;;6.07;3.95;;;;;;;17.51;42.39;100230.03;5052072;28;20453;-68
2023/03/22 10:25:43;;;;;;;5.38;3.95;;;;;;;17.55;42.38;100234.13;5052155;28;20045;-69
2023/03/22 10:28:18;;;;;;;5.43;3.83;;;;;;;17.57;42.29;100231.31;5052070;28;20565;-69
2023/03/22 10:30:52;;;;;;;5.18;3.88;;;;;;;17.56;42.13;100230.44;5051970;28;20144;-69
2023/03/22 10:33:29;;;;;;;5.68;3.67;;;;;;;17.59;42.31;100234.75;5052271;28;20067;-68
2023/03/22 10:36:00;;;;;;;6.70;3.90;;;;;;;17.58;42.36;100231.19;5051890;28;20055;-68
2023/03/22 10:38:30;;;;;;;6.43;4.13;;;;;;;17.59;42.16;100234.75;5051658;28;20048;-69
2023/03/22 10:41:00;;;;;;;5.88;4.03;;;;;;;17.58;42.46;100236.59;5051734;28;20063;-69
2023/03/22 10:43:32;;;;;;;5.95;4.00;;;;;;;17.61;42.44;100232.75;5051646;28;20102;-69
2023/03/22 10:46:03;;;;;;;5.53;3.92;;;;;;;17.59;42.53;100229.34;5051762;28;20079;-69
2023/03/22 10:48:35;;;;;;;6.30;3.90;;;;;;;17.61;42.41;100235.44;5051741;28;20076;-69
2023/03/22 10:51:05;;;;;;;7.03;3.95;;;;;;;17.62;42.52;100229.91;5051447;28;20045;-69
2023/03/22 10:53:38;;;;;;;6.10;3.90;;;;;;;17.62;42.47;100235.31;5051565;28;20049;-69
2023/03/22 10:56:12;;;;;;;8.30;3.85;;;;;;;17.62;42.43;100231.75;5051507;28;20041;-69
2023/03/22 10:58:41;;;;;;;5.70;3.90;;;;;;;17.61;42.27;100222.81;5051310;28;20548;-68
2023/03/22 11:01:11;;;;;;;6.78;4.22;;;;;;;17.62;42.50;100229.91;5051451;28;20071;-70
2023/03/22 11:03:42;;;;;;;6.47;4.22;;;;;;;17.62;42.52;100224.50;5051301;28;20053;-68
2023/03/22 11:06:14;;;;;;;7.28;4.30;;;;;;;17.63;42.56;100223.53;5051609;28;20135;-68
2023/03/22 11:08:45;;;;;;;6.22;4.10;;;;;;;17.63;42.58;100220.81;5051472;28;20041;-68
2023/03/22 11:11:17;;;;;;;6.30;4.10;;;;;;;17.64;42.40;100210.88;5051472;28;20181;-68
2023/03/22 11:13:51;;;;;;;5.72;3.75;;;;;;;17.64;42.34;100210.88;5051489;28;20072;-69
2023/03/22 11:16:20;;;;;;;5.15;3.83;;;;;;;17.64;42.41;100200.09;5051280;28;20191;-68
2023/03/22 11:18:48;;;;;;;7.38;4.20;;;;;;;17.63;42.47;100199.25;5051730;28;20103;-68
2023/03/22 11:21:22;;;;;;;6.22;4.25;;;;;;;17.63;42.61;100193.84;5051363;28;20045;-69
2023/03/22 11:23:56;;;;;;;6.07;4.05;;;;;;;17.64;42.48;100192.84;5051218;28;20045;-70
2023/03/22 11:26:32;;;;;;;5.95;3.78;;;;;;;17.64;42.50;100195.56;5054614;28;20048;-69
2023/03/22 11:29:13;;;;;;;5.68;3.90;;;;;;;17.63;42.27;100190.31;5055314;28;20051;-68
2023/03/22 11:31:54;;;;;;;6.65;3.70;;;;;;;17.65;42.46;100197.25;5055273;28;20084;-69
2023/03/22 11:34:25;;;;;;;5.50;3.85;;;;;;;17.64;42.43;100192.00;5055256;28;20045;-68
2023/03/22 11:36:59;;;;;;;6.32;4.00;;;;;;;17.63;42.57;100190.31;5055143;28;20052;-69
2023/03/22 11:39:29;;;;;;;5.65;4.00;;;;;;;17.65;42.69;100191.00;5054946;28;20064;-68
2023/03/22 11:42:00;;;;;;;6.32;4.00;;;;;;;17.64;42.54;100182.06;5054992;28;20090;-68
2023/03/22 11:44:34;;;;;;;5.13;3.58;;;;;;;17.63;42.69;100177.66;5055047;28;20049;-68